sensor_id;sensor_type;location;lat;lon;timestamp;temperature;humidity
35363;DHT22;21463;47.480;8.214;2022-11-03T00:00:32;21.30;47.30
35363;DHT22;21463;47.480;8.214;2022-11-03T00:02:02;21.30;47.30
35363;DHT22;21463;47.480;8.214;2022-11-03T00:03:36;21.30;47.40
35363;DHT22;21463;47.480;8.214;2022-11-03T00:04:47;21.20;47.30
35363;DHT22;21463;47.480;8.214;2022-11-03T00:06:17;21.30;47.40
35363;DHT22;21463;47.480;8.214;2022-11-03T00:07:37;21.30;47.40
35363;DHT22;21463;47.480;8.214;2022-11-03T00:08:45;21.30;47.30
35363;DHT22;21463;47.480;8.214;2022-11-03T00:10:03;21.30;47.30
35363;DHT22;21463;47.480;8.214;2022-11-03T00:11:33;21.30;47.30
35363;DHT22;21463;47.480;8.214;2022-11-03T00:13:02;21.20;47.30
35363;DHT22;21463;47.480;8.214;2022-11-03T00:14:33;21.20;47.30
35363;DHT22;21463;47.480;8.214;2022-11-03T00:15:58;21.20;47.30
35363;DHT22;21463;47.480;8.214;2022-11-03T00:17:10;21.30;47.40
35363;DHT22;21463;47.480;8.214;2022-11-03T00:18:25;21.40;47.40
35363;DHT22;21463;47.480;8.214;2022-11-03T00:19:59;21.30;47.40
35363;DHT22;21463;47.480;8.214;2022-11-03T00:21:18;21.30;47.40
35363;DHT22;21463;47.480;8.214;2022-11-03T00:22:25;21.30;47.40
35363;DHT22;21463;47.480;8.214;2022-11-03T00:23:42;21.30;47.40
35363;DHT22;21463;47.480;8.214;2022-11-03T00:25:17;21.30;47.40
35363;DHT22;21463;47.480;8.214;2022-11-03T00:26:33;20.90;47.10
35363;DHT22;21463;47.480;8.214;2022-11-03T00:27:42;21.20;47.30
35363;DHT22;21463;47.480;8.214;2022-11-03T00:29:08;21.20;47.40
35363;DHT22;21463;47.480;8.214;2022-11-03T00:30:22;21.30;47.40
35363;DHT22;21463;47.480;8.214;2022-11-03T00:31:33;21.30;47.40
35363;DHT22;21463;47.480;8.214;2022-11-03T00:32:54;21.20;47.30
35363;DHT22;21463;47.480;8.214;2022-11-03T00:34:09;21.20;47.30
35363;DHT22;21463;47.480;8.214;2022-11-03T00:35:37;21.20;47.30
35363;DHT22;21463;47.480;8.214;2022-11-03T00:36:55;21.20;47.30
35363;DHT22;21463;47.480;8.214;2022-11-03T00:38:20;21.20;47.30
35363;DHT22;21463;47.480;8.214;2022-11-03T00:39:44;21.20;47.30
35363;DHT22;21463;47.480;8.214;2022-11-03T00:41:02;21.30;47.40
35363;DHT22;21463;47.480;8.214;2022-11-03T00:42:25;21.20;47.30
35363;DHT22;21463;47.480;8.214;2022-11-03T00:43:39;21.20;47.30
35363;DHT22;21463;47.480;8.214;2022-11-03T00:44:58;21.20;47.40
35363;DHT22;21463;47.480;8.214;2022-11-03T00:46:19;21.20;47.40
35363;DHT22;21463;47.480;8.214;2022-11-03T00:47:37;21.30;47.40
35363;DHT22;21463;47.480;8.214;2022-11-03T00:49:17;21.20;47.30
35363;DHT22;21463;47.480;8.214;2022-11-03T00:50:27;21.20;47.40
35363;DHT22;21463;47.480;8.214;2022-11-03T00:51:39;21.20;47.40
35363;DHT22;21463;47.480;8.214;2022-11-03T00:52:49;21.30;47.40
35363;DHT22;21463;47.480;8.214;2022-11-03T00:54:04;21.20;47.30
35363;DHT22;21463;47.480;8.214;2022-11-03T00:55:26;21.20;47.30
35363;DHT22;21463;47.480;8.214;2022-11-03T00:56:52;21.20;47.40
35363;DHT22;21463;47.480;8.214;2022-11-03T00:58:08;21.20;47.40
35363;DHT22;21463;47.480;8.214;2022-11-03T00:59:28;21.20;47.30
35363;DHT22;21463;47.480;8.214;2022-11-03T01:01:13;21.20;47.40
35363;DHT22;21463;47.480;8.214;2022-11-03T01:02:31;21.30;47.40
35363;DHT22;21463;47.480;8.214;2022-11-03T01:03:47;21.30;47.40
35363;DHT22;21463;47.480;8.214;2022-11-03T01:05:13;21.20;47.30
35363;DHT22;21463;47.480;8.214;2022-11-03T01:06:41;21.20;47.40
35363;DHT22;21463;47.480;8.214;2022-11-03T01:08:02;21.20;47.40
35363;DHT22;21463;47.480;8.214;2022-11-03T01:09:21;21.20;47.40
35363;DHT22;21463;47.480;8.214;2022-11-03T01:10:44;21.20;47.40
35363;DHT22;21463;47.480;8.214;2022-11-03T01:12:16;21.30;47.40
35363;DHT22;21463;47.480;8.214;2022-11-03T01:13:47;21.20;47.40
35363;DHT22;21463;47.480;8.214;2022-11-03T01:15:14;21.20;47.40
35363;DHT22;21463;47.480;8.214;2022-11-03T01:16:29;21.20;47.40
35363;DHT22;21463;47.480;8.214;2022-11-03T01:17:55;21.20;47.40
35363;DHT22;21463;47.480;8.214;2022-11-03T01:19:12;21.20;47.40
35363;DHT22;21463;47.480;8.214;2022-11-03T01:20:38;21.20;47.40
35363;DHT22;21463;47.480;8.214;2022-11-03T01:21:55;21.30;47.50
35363;DHT22;21463;47.480;8.214;2022-11-03T01:23:07;21.20;47.40
35363;DHT22;21463;47.480;8.214;2022-11-03T01:24:26;21.20;47.40
35363;DHT22;21463;47.480;8.214;2022-11-03T01:25:46;21.20;47.40
35363;DHT22;21463;47.480;8.214;2022-11-03T01:27:02;21.20;47.40
35363;DHT22;21463;47.480;8.214;2022-11-03T01:28:13;21.20;47.40
35363;DHT22;21463;47.480;8.214;2022-11-03T01:29:45;21.20;47.40
35363;DHT22;21463;47.480;8.214;2022-11-03T01:31:15;21.20;47.50
35363;DHT22;21463;47.480;8.214;2022-11-03T01:32:40;21.20;47.40
35363;DHT22;21463;47.480;8.214;2022-11-03T01:34:04;21.20;47.40
35363;DHT22;21463;47.480;8.214;2022-11-03T01:35:12;21.20;47.40
35363;DHT22;21463;47.480;8.214;2022-11-03T01:36:21;21.30;47.50
35363;DHT22;21463;47.480;8.214;2022-11-03T01:37:38;21.30;47.50
35363;DHT22;21463;47.480;8.214;2022-11-03T01:38:52;21.20;47.40
35363;DHT22;21463;47.480;8.214;2022-11-03T01:40:09;21.20;47.40
35363;DHT22;21463;47.480;8.214;2022-11-03T01:41:28;21.20;47.40
35363;DHT22;21463;47.480;8.214;2022-11-03T01:43:21;21.20;47.40
35363;DHT22;21463;47.480;8.214;2022-11-03T01:44:56;21.20;48.10
35363;DHT22;21463;47.480;8.214;2022-11-03T01:46:56;21.20;47.50
35363;DHT22;21463;47.480;8.214;2022-11-03T01:49:02;21.20;47.40
35363;DHT22;21463;47.480;8.214;2022-11-03T01:50:19;21.20;47.50
35363;DHT22;21463;47.480;8.214;2022-11-03T01:51:25;21.20;47.40
35363;DHT22;21463;47.480;8.214;2022-11-03T01:52:59;21.20;47.50
35363;DHT22;21463;47.480;8.214;2022-11-03T01:54:18;21.20;47.40
35363;DHT22;21463;47.480;8.214;2022-11-03T01:55:44;21.20;47.40
35363;DHT22;21463;47.480;8.214;2022-11-03T01:56:59;21.20;47.50
35363;DHT22;21463;47.480;8.214;2022-11-03T01:58:20;21.30;47.50
35363;DHT22;21463;47.480;8.214;2022-11-03T01:59:43;21.20;47.50
35363;DHT22;21463;47.480;8.214;2022-11-03T02:01:01;21.20;47.50
35363;DHT22;21463;47.480;8.214;2022-11-03T02:02:13;21.20;47.50
35363;DHT22;21463;47.480;8.214;2022-11-03T02:03:37;21.20;47.50
35363;DHT22;21463;47.480;8.214;2022-11-03T02:04:48;21.20;47.50
35363;DHT22;21463;47.480;8.214;2022-11-03T02:06:09;21.20;47.50
35363;DHT22;21463;47.480;8.214;2022-11-03T02:07:52;21.20;47.50
35363;DHT22;21463;47.480;8.214;2022-11-03T02:09:07;21.20;47.50
35363;DHT22;21463;47.480;8.214;2022-11-03T02:10:36;21.10;47.40
35363;DHT22;21463;47.480;8.214;2022-11-03T02:11:48;21.20;47.50
35363;DHT22;21463;47.480;8.214;2022-11-03T02:13:27;21.20;47.50
35363;DHT22;21463;47.480;8.214;2022-11-03T02:14:47;21.10;47.40
35363;DHT22;21463;47.480;8.214;2022-11-03T02:15:57;21.20;47.50
35363;DHT22;21463;47.480;8.214;2022-11-03T02:17:23;21.20;47.50
35363;DHT22;21463;47.480;8.214;2022-11-03T02:18:59;21.20;47.50
35363;DHT22;21463;47.480;8.214;2022-11-03T02:20:27;21.10;47.40
35363;DHT22;21463;47.480;8.214;2022-11-03T02:21:52;21.30;47.60
35363;DHT22;21463;47.480;8.214;2022-11-03T02:23:27;21.20;47.50
35363;DHT22;21463;47.480;8.214;2022-11-03T02:25:06;21.20;47.50
35363;DHT22;21463;47.480;8.214;2022-11-03T02:26:47;21.20;47.50
35363;DHT22;21463;47.480;8.214;2022-11-03T02:28:02;21.50;47.70
35363;DHT22;21463;47.480;8.214;2022-11-03T02:29:17;21.20;47.50
35363;DHT22;21463;47.480;8.214;2022-11-03T02:33:05;21.20;47.50
35363;DHT22;21463;47.480;8.214;2022-11-03T02:34:42;21.20;47.50
35363;DHT22;21463;47.480;8.214;2022-11-03T02:37:46;21.20;47.50
35363;DHT22;21463;47.480;8.214;2022-11-03T02:39:15;21.20;47.50
35363;DHT22;21463;47.480;8.214;2022-11-03T02:40:44;21.20;47.50
35363;DHT22;21463;47.480;8.214;2022-11-03T02:41:56;21.20;47.50
35363;DHT22;21463;47.480;8.214;2022-11-03T02:43:39;21.20;47.50
35363;DHT22;21463;47.480;8.214;2022-11-03T02:44:54;21.20;47.50
35363;DHT22;21463;47.480;8.214;2022-11-03T02:46:09;21.20;47.50
35363;DHT22;21463;47.480;8.214;2022-11-03T02:47:37;21.20;47.50
35363;DHT22;21463;47.480;8.214;2022-11-03T02:48:57;21.20;47.50
35363;DHT22;21463;47.480;8.214;2022-11-03T02:50:33;21.20;47.50
35363;DHT22;21463;47.480;8.214;2022-11-03T02:52:05;21.20;47.50
35363;DHT22;21463;47.480;8.214;2022-11-03T02:53:43;21.20;47.50
35363;DHT22;21463;47.480;8.214;2022-11-03T02:55:45;21.40;47.90
35363;DHT22;21463;47.480;8.214;2022-11-03T02:57:20;21.20;47.50
35363;DHT22;21463;47.480;8.214;2022-11-03T02:59:06;21.20;47.50
35363;DHT22;21463;47.480;8.214;2022-11-03T03:02:58;21.20;47.60
35363;DHT22;21463;47.480;8.214;2022-11-03T03:04:46;21.20;48.10
35363;DHT22;21463;47.480;8.214;2022-11-03T03:05:58;21.20;47.50
35363;DHT22;21463;47.480;8.214;2022-11-03T03:07:18;21.20;47.50
35363;DHT22;21463;47.480;8.214;2022-11-03T03:08:48;21.20;47.50
35363;DHT22;21463;47.480;8.214;2022-11-03T03:10:08;21.20;47.60
35363;DHT22;21463;47.480;8.214;2022-11-03T03:11:20;21.20;47.60
35363;DHT22;21463;47.480;8.214;2022-11-03T03:12:55;21.20;47.60
35363;DHT22;21463;47.480;8.214;2022-11-03T03:14:21;21.20;47.60
35363;DHT22;21463;47.480;8.214;2022-11-03T03:17:40;21.20;47.60
35363;DHT22;21463;47.480;8.214;2022-11-03T03:19:17;21.20;47.50
35363;DHT22;21463;47.480;8.214;2022-11-03T03:20:41;21.20;47.50
35363;DHT22;21463;47.480;8.214;2022-11-03T03:22:06;21.20;47.60
35363;DHT22;21463;47.480;8.214;2022-11-03T03:23:33;21.20;47.60
35363;DHT22;21463;47.480;8.214;2022-11-03T03:26:51;21.20;47.60
35363;DHT22;21463;47.480;8.214;2022-11-03T03:28:54;21.20;47.50
35363;DHT22;21463;47.480;8.214;2022-11-03T03:30:41;21.20;47.60
35363;DHT22;21463;47.480;8.214;2022-11-03T03:32:21;21.20;47.60
35363;DHT22;21463;47.480;8.214;2022-11-03T03:33:57;21.10;47.50
35363;DHT22;21463;47.480;8.214;2022-11-03T03:35:27;21.20;47.60
35363;DHT22;21463;47.480;8.214;2022-11-03T03:37:00;21.20;47.60
35363;DHT22;21463;47.480;8.214;2022-11-03T03:38:21;21.20;47.60
35363;DHT22;21463;47.480;8.214;2022-11-03T03:39:53;21.20;47.60
35363;DHT22;21463;47.480;8.214;2022-11-03T03:41:28;21.20;47.60
35363;DHT22;21463;47.480;8.214;2022-11-03T03:43:01;21.20;47.60
35363;DHT22;21463;47.480;8.214;2022-11-03T03:44:28;21.20;47.60
35363;DHT22;21463;47.480;8.214;2022-11-03T03:46:01;21.20;47.60
35363;DHT22;21463;47.480;8.214;2022-11-03T03:47:33;21.20;47.60
35363;DHT22;21463;47.480;8.214;2022-11-03T03:48:52;21.20;47.60
35363;DHT22;21463;47.480;8.214;2022-11-03T03:50:05;21.20;47.60
35363;DHT22;21463;47.480;8.214;2022-11-03T03:51:22;21.20;47.60
35363;DHT22;21463;47.480;8.214;2022-11-03T03:52:33;21.20;47.60
35363;DHT22;21463;47.480;8.214;2022-11-03T03:53:50;21.10;47.60
35363;DHT22;21463;47.480;8.214;2022-11-03T03:55:20;21.20;47.60
35363;DHT22;21463;47.480;8.214;2022-11-03T03:56:37;21.20;47.60
35363;DHT22;21463;47.480;8.214;2022-11-03T03:57:56;21.20;47.60
35363;DHT22;21463;47.480;8.214;2022-11-03T03:59:21;21.20;47.60
35363;DHT22;21463;47.480;8.214;2022-11-03T04:00:28;21.20;47.60
35363;DHT22;21463;47.480;8.214;2022-11-03T04:01:45;21.20;47.60
35363;DHT22;21463;47.480;8.214;2022-11-03T04:02:58;21.20;48.20
35363;DHT22;21463;47.480;8.214;2022-11-03T04:05:36;21.20;47.60
35363;DHT22;21463;47.480;8.214;2022-11-03T04:06:46;21.20;47.60
35363;DHT22;21463;47.480;8.214;2022-11-03T04:07:53;21.20;47.60
35363;DHT22;21463;47.480;8.214;2022-11-03T04:09:16;21.90;48.00
35363;DHT22;21463;47.480;8.214;2022-11-03T04:10:25;21.20;47.70
35363;DHT22;21463;47.480;8.214;2022-11-03T04:11:32;21.10;47.60
35363;DHT22;21463;47.480;8.214;2022-11-03T04:13:09;21.20;47.60
35363;DHT22;21463;47.480;8.214;2022-11-03T04:14:39;21.20;47.60
35363;DHT22;21463;47.480;8.214;2022-11-03T04:16:07;21.20;47.60
35363;DHT22;21463;47.480;8.214;2022-11-03T04:17:37;21.20;47.60
35363;DHT22;21463;47.480;8.214;2022-11-03T04:19:01;21.30;47.70
35363;DHT22;21463;47.480;8.214;2022-11-03T04:20:24;21.20;47.60
35363;DHT22;21463;47.480;8.214;2022-11-03T04:21:54;21.20;47.60
35363;DHT22;21463;47.480;8.214;2022-11-03T04:23:26;21.20;47.60
35363;DHT22;21463;47.480;8.214;2022-11-03T04:25:05;21.10;47.60
35363;DHT22;21463;47.480;8.214;2022-11-03T04:26:21;21.10;47.60
35363;DHT22;21463;47.480;8.214;2022-11-03T04:27:50;21.10;47.60
35363;DHT22;21463;47.480;8.214;2022-11-03T04:29:10;21.10;47.60
35363;DHT22;21463;47.480;8.214;2022-11-03T04:30:32;21.20;47.60
35363;DHT22;21463;47.480;8.214;2022-11-03T04:32:14;21.20;47.60
35363;DHT22;21463;47.480;8.214;2022-11-03T04:33:37;21.40;47.80
35363;DHT22;21463;47.480;8.214;2022-11-03T04:34:58;21.20;47.70
35363;DHT22;21463;47.480;8.214;2022-11-03T04:36:19;21.20;47.70
35363;DHT22;21463;47.480;8.214;2022-11-03T04:37:53;21.20;48.30
35363;DHT22;21463;47.480;8.214;2022-11-03T04:39:21;21.10;47.60
35363;DHT22;21463;47.480;8.214;2022-11-03T04:42:37;21.20;47.70
35363;DHT22;21463;47.480;8.214;2022-11-03T04:44:15;21.20;47.70
35363;DHT22;21463;47.480;8.214;2022-11-03T04:45:38;21.60;47.90
35363;DHT22;21463;47.480;8.214;2022-11-03T04:47:37;21.20;47.70
35363;DHT22;21463;47.480;8.214;2022-11-03T04:49:21;21.20;47.70
35363;DHT22;21463;47.480;8.214;2022-11-03T04:51:17;21.20;47.70
35363;DHT22;21463;47.480;8.214;2022-11-03T04:52:34;21.20;47.70
35363;DHT22;21463;47.480;8.214;2022-11-03T04:54:20;21.20;47.70
35363;DHT22;21463;47.480;8.214;2022-11-03T04:56:14;21.20;47.70
35363;DHT22;21463;47.480;8.214;2022-11-03T04:57:57;21.20;47.70
35363;DHT22;21463;47.480;8.214;2022-11-03T04:59:29;21.20;47.70
35363;DHT22;21463;47.480;8.214;2022-11-03T05:01:11;21.10;47.60
35363;DHT22;21463;47.480;8.214;2022-11-03T05:02:29;21.20;47.70
35363;DHT22;21463;47.480;8.214;2022-11-03T05:03:52;21.10;47.70
35363;DHT22;21463;47.480;8.214;2022-11-03T05:05:21;21.20;47.70
35363;DHT22;21463;47.480;8.214;2022-11-03T05:06:37;21.20;47.80
35363;DHT22;21463;47.480;8.214;2022-11-03T05:07:54;21.20;47.70
35363;DHT22;21463;47.480;8.214;2022-11-03T05:09:34;21.20;47.70
35363;DHT22;21463;47.480;8.214;2022-11-03T05:10:59;21.20;47.70
35363;DHT22;21463;47.480;8.214;2022-11-03T05:12:34;21.20;47.80
35363;DHT22;21463;47.480;8.214;2022-11-03T05:14:01;21.20;47.70
35363;DHT22;21463;47.480;8.214;2022-11-03T05:15:34;21.20;47.70
35363;DHT22;21463;47.480;8.214;2022-11-03T05:16:48;21.20;47.70
35363;DHT22;21463;47.480;8.214;2022-11-03T05:18:36;21.20;47.70
35363;DHT22;21463;47.480;8.214;2022-11-03T05:20:29;21.10;47.60
35363;DHT22;21463;47.480;8.214;2022-11-03T05:22:02;21.20;47.70
35363;DHT22;21463;47.480;8.214;2022-11-03T05:23:28;21.20;47.70
35363;DHT22;21463;47.480;8.214;2022-11-03T05:25:47;21.20;47.70
35363;DHT22;21463;47.480;8.214;2022-11-03T05:27:17;21.10;47.60
35363;DHT22;21463;47.480;8.214;2022-11-03T05:29:23;21.20;47.70
35363;DHT22;21463;47.480;8.214;2022-11-03T05:30:41;21.20;47.60
35363;DHT22;21463;47.480;8.214;2022-11-03T05:32:02;21.20;47.60
35363;DHT22;21463;47.480;8.214;2022-11-03T05:33:33;21.20;47.60
35363;DHT22;21463;47.480;8.214;2022-11-03T05:34:50;21.10;47.60
35363;DHT22;21463;47.480;8.214;2022-11-03T05:36:14;21.10;47.60
35363;DHT22;21463;47.480;8.214;2022-11-03T05:37:46;21.20;47.60
35363;DHT22;21463;47.480;8.214;2022-11-03T05:39:35;21.10;47.60
35363;DHT22;21463;47.480;8.214;2022-11-03T05:41:31;21.20;47.60
35363;DHT22;21463;47.480;8.214;2022-11-03T05:42:56;21.20;47.60
35363;DHT22;21463;47.480;8.214;2022-11-03T05:44:36;21.20;48.20
35363;DHT22;21463;47.480;8.214;2022-11-03T05:46:03;21.20;47.60
35363;DHT22;21463;47.480;8.214;2022-11-03T05:47:38;21.20;47.60
35363;DHT22;21463;47.480;8.214;2022-11-03T05:49:21;21.10;47.60
35363;DHT22;21463;47.480;8.214;2022-11-03T05:51:33;21.10;47.50
35363;DHT22;21463;47.480;8.214;2022-11-03T05:53:36;21.20;47.60
35363;DHT22;21463;47.480;8.214;2022-11-03T05:55:15;21.50;47.70
35363;DHT22;21463;47.480;8.214;2022-11-03T05:56:55;21.10;47.50
35363;DHT22;21463;47.480;8.214;2022-11-03T05:58:42;21.20;47.60
35363;DHT22;21463;47.480;8.214;2022-11-03T05:59:57;21.20;47.60
35363;DHT22;21463;47.480;8.214;2022-11-03T06:01:33;21.10;47.50
35363;DHT22;21463;47.480;8.214;2022-11-03T06:03:20;21.20;48.10
35363;DHT22;21463;47.480;8.214;2022-11-03T06:04:35;21.20;47.50
35363;DHT22;21463;47.480;8.214;2022-11-03T06:05:57;21.10;47.50
35363;DHT22;21463;47.480;8.214;2022-11-03T06:07:28;21.10;47.50
35363;DHT22;21463;47.480;8.214;2022-11-03T06:08:41;21.20;47.60
35363;DHT22;21463;47.480;8.214;2022-11-03T06:10:22;21.10;47.50
35363;DHT22;21463;47.480;8.214;2022-11-03T06:12:12;21.20;47.50
35363;DHT22;21463;47.480;8.214;2022-11-03T06:13:35;21.10;47.40
35363;DHT22;21463;47.480;8.214;2022-11-03T06:15:00;21.20;47.50
35363;DHT22;21463;47.480;8.214;2022-11-03T06:16:36;21.20;47.50
35363;DHT22;21463;47.480;8.214;2022-11-03T06:18:19;21.20;47.50
35363;DHT22;21463;47.480;8.214;2022-11-03T06:19:41;21.10;47.40
35363;DHT22;21463;47.480;8.214;2022-11-03T06:21:07;21.10;47.40
35363;DHT22;21463;47.480;8.214;2022-11-03T06:22:54;21.10;47.50
35363;DHT22;21463;47.480;8.214;2022-11-03T06:24:37;21.10;47.40
35363;DHT22;21463;47.480;8.214;2022-11-03T06:25:57;21.20;47.50
35363;DHT22;21463;47.480;8.214;2022-11-03T06:27:33;21.10;47.40
35363;DHT22;21463;47.480;8.214;2022-11-03T06:28:54;21.20;47.40
35363;DHT22;21463;47.480;8.214;2022-11-03T06:30:26;21.10;47.40
35363;DHT22;21463;47.480;8.214;2022-11-03T06:32:11;21.20;47.40
35363;DHT22;21463;47.480;8.214;2022-11-03T06:33:35;21.20;47.50
35363;DHT22;21463;47.480;8.214;2022-11-03T06:35:34;21.10;47.40
35363;DHT22;21463;47.480;8.214;2022-11-03T06:36:54;21.10;47.30
35363;DHT22;21463;47.480;8.214;2022-11-03T06:38:39;21.20;47.40
35363;DHT22;21463;47.480;8.214;2022-11-03T06:40:33;21.20;47.40
35363;DHT22;21463;47.480;8.214;2022-11-03T06:41:46;21.10;47.30
35363;DHT22;21463;47.480;8.214;2022-11-03T06:43:17;21.10;47.30
35363;DHT22;21463;47.480;8.214;2022-11-03T06:45:25;21.20;47.40
35363;DHT22;21463;47.480;8.214;2022-11-03T06:46:55;21.10;47.30
35363;DHT22;21463;47.480;8.214;2022-11-03T06:48:14;21.10;47.30
35363;DHT22;21463;47.480;8.214;2022-11-03T06:50:00;21.10;47.30
35363;DHT22;21463;47.480;8.214;2022-11-03T06:51:40;21.10;47.30
35363;DHT22;21463;47.480;8.214;2022-11-03T06:53:28;21.10;47.30
35363;DHT22;21463;47.480;8.214;2022-11-03T06:54:51;21.10;47.30
35363;DHT22;21463;47.480;8.214;2022-11-03T06:56:14;21.10;47.30
35363;DHT22;21463;47.480;8.214;2022-11-03T06:57:36;21.10;47.30
35363;DHT22;21463;47.480;8.214;2022-11-03T06:59:27;21.20;47.30
35363;DHT22;21463;47.480;8.214;2022-11-03T07:01:13;21.00;47.20
35363;DHT22;21463;47.480;8.214;2022-11-03T07:04:31;21.10;47.20
35363;DHT22;21463;47.480;8.214;2022-11-03T07:06:38;21.10;47.20
35363;DHT22;21463;47.480;8.214;2022-11-03T07:08:34;21.10;47.30
35363;DHT22;21463;47.480;8.214;2022-11-03T07:10:04;21.10;47.20
35363;DHT22;21463;47.480;8.214;2022-11-03T07:11:30;21.10;47.20
35363;DHT22;21463;47.480;8.214;2022-11-03T07:12:53;21.10;47.30
35363;DHT22;21463;47.480;8.214;2022-11-03T07:14:20;21.10;47.30
35363;DHT22;21463;47.480;8.214;2022-11-03T07:15:51;21.10;47.20
35363;DHT22;21463;47.480;8.214;2022-11-03T07:17:20;21.10;47.20
35363;DHT22;21463;47.480;8.214;2022-11-03T07:19:02;21.10;47.20
35363;DHT22;21463;47.480;8.214;2022-11-03T07:20:38;21.10;47.20
35363;DHT22;21463;47.480;8.214;2022-11-03T07:22:23;21.50;47.40
35363;DHT22;21463;47.480;8.214;2022-11-03T07:24:18;21.20;47.30
35363;DHT22;21463;47.480;8.214;2022-11-03T07:26:06;21.10;47.20
35363;DHT22;21463;47.480;8.214;2022-11-03T07:27:38;21.20;47.30
35363;DHT22;21463;47.480;8.214;2022-11-03T07:29:26;21.10;47.20
35363;DHT22;21463;47.480;8.214;2022-11-03T07:30:41;21.20;47.30
35363;DHT22;21463;47.480;8.214;2022-11-03T07:32:10;21.10;47.20
35363;DHT22;21463;47.480;8.214;2022-11-03T07:33:32;21.10;47.20
35363;DHT22;21463;47.480;8.214;2022-11-03T07:37:22;21.10;47.20
35363;DHT22;21463;47.480;8.214;2022-11-03T07:38:33;21.10;47.20
35363;DHT22;21463;47.480;8.214;2022-11-03T07:39:53;21.10;47.20
35363;DHT22;21463;47.480;8.214;2022-11-03T07:41:13;21.10;47.20
35363;DHT22;21463;47.480;8.214;2022-11-03T07:42:54;21.10;47.20
35363;DHT22;21463;47.480;8.214;2022-11-03T07:44:27;21.60;47.50
35363;DHT22;21463;47.480;8.214;2022-11-03T07:46:12;21.20;47.20
35363;DHT22;21463;47.480;8.214;2022-11-03T07:47:48;21.10;47.10
35363;DHT22;21463;47.480;8.214;2022-11-03T07:49:02;21.10;47.20
35363;DHT22;21463;47.480;8.214;2022-11-03T07:50:42;21.20;47.20
35363;DHT22;21463;47.480;8.214;2022-11-03T07:52:24;21.10;47.20
35363;DHT22;21463;47.480;8.214;2022-11-03T07:54:19;21.20;47.20
35363;DHT22;21463;47.480;8.214;2022-11-03T07:55:47;21.10;47.20
35363;DHT22;21463;47.480;8.214;2022-11-03T07:57:34;21.10;47.20
35363;DHT22;21463;47.480;8.214;2022-11-03T07:59:39;21.10;47.10
35363;DHT22;21463;47.480;8.214;2022-11-03T08:01:27;21.10;47.10
35363;DHT22;21463;47.480;8.214;2022-11-03T08:03:40;21.10;47.10
35363;DHT22;21463;47.480;8.214;2022-11-03T08:05:35;21.10;47.10
35363;DHT22;21463;47.480;8.214;2022-11-03T08:07:00;21.10;47.10
35363;DHT22;21463;47.480;8.214;2022-11-03T08:08:33;21.10;47.20
35363;DHT22;21463;47.480;8.214;2022-11-03T08:09:47;21.20;47.20
35363;DHT22;21463;47.480;8.214;2022-11-03T08:11:44;21.10;47.10
35363;DHT22;21463;47.480;8.214;2022-11-03T08:12:57;21.10;47.10
35363;DHT22;21463;47.480;8.214;2022-11-03T08:14:13;21.10;47.70
35363;DHT22;21463;47.480;8.214;2022-11-03T08:15:59;21.10;47.10
35363;DHT22;21463;47.480;8.214;2022-11-03T08:17:24;21.10;47.10
35363;DHT22;21463;47.480;8.214;2022-11-03T08:18:40;21.20;47.20
35363;DHT22;21463;47.480;8.214;2022-11-03T08:20:24;21.10;47.10
35363;DHT22;21463;47.480;8.214;2022-11-03T08:21:58;21.10;47.10
35363;DHT22;21463;47.480;8.214;2022-11-03T08:23:36;21.10;47.10
35363;DHT22;21463;47.480;8.214;2022-11-03T08:25:06;21.10;47.20
35363;DHT22;21463;47.480;8.214;2022-11-03T08:26:38;21.10;47.10
35363;DHT22;21463;47.480;8.214;2022-11-03T08:28:26;21.10;47.10
35363;DHT22;21463;47.480;8.214;2022-11-03T08:29:41;21.10;47.10
35363;DHT22;21463;47.480;8.214;2022-11-03T08:31:31;21.50;47.30
35363;DHT22;21463;47.480;8.214;2022-11-03T08:32:53;21.10;47.10
35363;DHT22;21463;47.480;8.214;2022-11-03T08:34:31;21.10;47.10
35363;DHT22;21463;47.480;8.214;2022-11-03T08:35:54;21.10;47.10
35363;DHT22;21463;47.480;8.214;2022-11-03T08:37:27;21.10;47.10
35363;DHT22;21463;47.480;8.214;2022-11-03T08:39:04;21.10;47.10
35363;DHT22;21463;47.480;8.214;2022-11-03T08:40:32;21.10;47.10
35363;DHT22;21463;47.480;8.214;2022-11-03T08:42:02;21.10;47.10
35363;DHT22;21463;47.480;8.214;2022-11-03T08:43:46;21.10;47.10
35363;DHT22;21463;47.480;8.214;2022-11-03T08:45:13;21.10;47.10
35363;DHT22;21463;47.480;8.214;2022-11-03T08:46:41;21.10;47.10
35363;DHT22;21463;47.480;8.214;2022-11-03T08:48:25;21.10;47.10
35363;DHT22;21463;47.480;8.214;2022-11-03T08:50:15;21.10;47.10
35363;DHT22;21463;47.480;8.214;2022-11-03T08:51:45;21.10;47.10
35363;DHT22;21463;47.480;8.214;2022-11-03T08:53:54;21.10;47.10
35363;DHT22;21463;47.480;8.214;2022-11-03T08:56:17;21.10;47.00
35363;DHT22;21463;47.480;8.214;2022-11-03T08:57:45;21.10;47.00
35363;DHT22;21463;47.480;8.214;2022-11-03T08:59:06;21.10;47.00
35363;DHT22;21463;47.480;8.214;2022-11-03T09:00:22;20.50;46.70
35363;DHT22;21463;47.480;8.214;2022-11-03T09:01:43;21.10;47.00
35363;DHT22;21463;47.480;8.214;2022-11-03T09:03:28;21.10;47.00
35363;DHT22;21463;47.480;8.214;2022-11-03T09:05:37;21.10;47.00
35363;DHT22;21463;47.480;8.214;2022-11-03T09:07:49;21.10;47.00
35363;DHT22;21463;47.480;8.214;2022-11-03T09:10:18;21.10;47.00
35363;DHT22;21463;47.480;8.214;2022-11-03T09:11:58;21.20;47.00
35363;DHT22;21463;47.480;8.214;2022-11-03T09:14:08;21.20;47.00
35363;DHT22;21463;47.480;8.214;2022-11-03T09:15:56;21.10;46.90
35363;DHT22;21463;47.480;8.214;2022-11-03T09:17:43;21.20;47.00
35363;DHT22;21463;47.480;8.214;2022-11-03T09:19:34;21.10;46.90
35363;DHT22;21463;47.480;8.214;2022-11-03T09:21:34;21.20;46.90
35363;DHT22;21463;47.480;8.214;2022-11-03T09:23:24;21.20;46.90
35363;DHT22;21463;47.480;8.214;2022-11-03T09:24:40;21.20;46.90
35363;DHT22;21463;47.480;8.214;2022-11-03T09:26:09;21.10;46.90
35363;DHT22;21463;47.480;8.214;2022-11-03T09:27:35;21.20;46.90
35363;DHT22;21463;47.480;8.214;2022-11-03T09:28:58;21.20;46.90
35363;DHT22;21463;47.480;8.214;2022-11-03T09:30:34;21.20;46.90
35363;DHT22;21463;47.480;8.214;2022-11-03T09:31:49;21.20;46.80
35363;DHT22;21463;47.480;8.214;2022-11-03T09:33:11;21.20;46.90
35363;DHT22;21463;47.480;8.214;2022-11-03T09:34:28;21.20;46.90
35363;DHT22;21463;47.480;8.214;2022-11-03T09:35:50;21.20;46.80
35363;DHT22;21463;47.480;8.214;2022-11-03T09:37:25;21.20;46.80
35363;DHT22;21463;47.480;8.214;2022-11-03T09:39:26;21.20;46.80
35363;DHT22;21463;47.480;8.214;2022-11-03T09:40:41;21.20;46.80
35363;DHT22;21463;47.480;8.214;2022-11-03T09:42:17;21.20;46.80
35363;DHT22;21463;47.480;8.214;2022-11-03T09:44:17;21.20;46.80
35363;DHT22;21463;47.480;8.214;2022-11-03T09:46:01;21.20;46.80
35363;DHT22;21463;47.480;8.214;2022-11-03T09:47:47;21.20;46.80